sensor_id;sensor_type;location;lat;lon;timestamp;temperature;humidity
73829;SHT30;62176;48.450;-4.466;2022-09-28T00:02:08;15.43;93.58
73829;SHT30;62176;48.450;-4.466;2022-09-28T00:04:34;15.43;93.71
73829;SHT30;62176;48.450;-4.466;2022-09-28T00:06:59;15.44;93.68
73829;SHT30;62176;48.450;-4.466;2022-09-28T00:09:25;15.43;93.58
73829;SHT30;62176;48.450;-4.466;2022-09-28T00:11:51;15.41;93.53
73829;SHT30;62176;48.450;-4.466;2022-09-28T00:14:18;15.43;93.63
73829;SHT30;62176;48.450;-4.466;2022-09-28T00:16:44;15.46;94.05
73829;SHT30;62176;48.450;-4.466;2022-09-28T00:19:11;15.46;93.33
73829;SHT30;62176;48.450;-4.466;2022-09-28T00:21:38;15.44;93.77
73829;SHT30;62176;48.450;-4.466;2022-09-28T00:24:05;15.41;93.48
73829;SHT30;62176;48.450;-4.466;2022-09-28T00:26:47;15.41;93.67
73829;SHT30;62176;48.450;-4.466;2022-09-28T00:31:52;15.37;93.44
73829;SHT30;62176;48.450;-4.466;2022-09-28T00:34:18;15.37;93.65
73829;SHT30;62176;48.450;-4.466;2022-09-28T00:36:45;15.36;93.35
73829;SHT30;62176;48.450;-4.466;2022-09-28T00:39:12;15.37;93.81
73829;SHT30;62176;48.450;-4.466;2022-09-28T00:41:38;15.38;93.78
73829;SHT30;62176;48.450;-4.466;2022-09-28T00:46:56;15.37;97.08
73829;SHT30;62176;48.450;-4.466;2022-09-28T00:49:32;15.38;97.06
73829;SHT30;62176;48.450;-4.466;2022-09-28T00:51:58;15.43;96.94
73829;SHT30;62176;48.450;-4.466;2022-09-28T00:54:25;15.41;96.91
73829;SHT30;62176;48.450;-4.466;2022-09-28T00:56:50;15.40;96.92
73829;SHT30;62176;48.450;-4.466;2022-09-28T00:59:16;15.40;96.92
73829;SHT30;62176;48.450;-4.466;2022-09-28T01:01:41;15.37;96.95
73829;SHT30;62176;48.450;-4.466;2022-09-28T01:04:06;15.43;96.97
73829;SHT30;62176;48.450;-4.466;2022-09-28T01:06:35;15.40;96.83
73829;SHT30;62176;48.450;-4.466;2022-09-28T01:09:06;15.40;96.75
73829;SHT30;62176;48.450;-4.466;2022-09-28T01:11:36;15.43;96.66
73829;SHT30;62176;48.450;-4.466;2022-09-28T01:14:05;15.41;96.23
73829;SHT30;62176;48.450;-4.466;2022-09-28T01:16:59;15.40;94.92
73829;SHT30;62176;48.450;-4.466;2022-09-28T01:28:19;15.43;93.79
73829;SHT30;62176;48.450;-4.466;2022-09-28T01:30:50;15.46;93.85
73829;SHT30;62176;48.450;-4.466;2022-09-28T01:33:27;15.46;93.83
73829;SHT30;62176;48.450;-4.466;2022-09-28T01:36:08;15.43;93.52
73829;SHT30;62176;48.450;-4.466;2022-09-28T01:38:43;15.40;93.42
73829;SHT30;62176;48.450;-4.466;2022-09-28T01:41:11;15.43;93.38
73829;SHT30;62176;48.450;-4.466;2022-09-28T01:43:41;15.44;93.63
73829;SHT30;62176;48.450;-4.466;2022-09-28T01:46:21;15.41;93.52
73829;SHT30;62176;48.450;-4.466;2022-09-28T01:51:24;15.43;93.70
73829;SHT30;62176;48.450;-4.466;2022-09-28T01:53:56;15.41;93.37
73829;SHT30;62176;48.450;-4.466;2022-09-28T01:57:03;15.40;93.53
73829;SHT30;62176;48.450;-4.466;2022-09-28T01:59:32;15.40;93.39
73829;SHT30;62176;48.450;-4.466;2022-09-28T02:02:04;15.41;93.79
73829;SHT30;62176;48.450;-4.466;2022-09-28T02:04:36;15.41;93.54
73829;SHT30;62176;48.450;-4.466;2022-09-28T02:07:25;15.43;93.44
73829;SHT30;62176;48.450;-4.466;2022-09-28T02:09:56;15.44;93.68
73829;SHT30;62176;48.450;-4.466;2022-09-28T02:12:32;15.44;93.61
73829;SHT30;62176;48.450;-4.466;2022-09-28T02:15:08;15.43;93.51
73829;SHT30;62176;48.450;-4.466;2022-09-28T02:17:35;15.41;93.63
73829;SHT30;62176;48.450;-4.466;2022-09-28T02:20:01;15.40;93.85
73829;SHT30;62176;48.450;-4.466;2022-09-28T02:22:27;15.40;93.84
73829;SHT30;62176;48.450;-4.466;2022-09-28T02:24:54;15.34;93.55
73829;SHT30;62176;48.450;-4.466;2022-09-28T02:29:56;14.99;93.29
73829;SHT30;62176;48.450;-4.466;2022-09-28T02:32:23;14.82;93.40
73829;SHT30;62176;48.450;-4.466;2022-09-28T02:34:49;14.69;93.66
73829;SHT30;62176;48.450;-4.466;2022-09-28T02:37:14;14.59;93.96
73829;SHT30;62176;48.450;-4.466;2022-09-28T02:39:40;14.48;94.16
73829;SHT30;62176;48.450;-4.466;2022-09-28T03:04:10;13.92;94.80
73829;SHT30;62176;48.450;-4.466;2022-09-28T03:06:59;13.87;94.87
73829;SHT30;62176;48.450;-4.466;2022-09-28T03:09:46;13.84;95.12
73829;SHT30;62176;48.450;-4.466;2022-09-28T03:12:17;13.82;95.23
73829;SHT30;62176;48.450;-4.466;2022-09-28T03:14:44;13.84;95.50
73829;SHT30;62176;48.450;-4.466;2022-09-28T03:17:09;13.80;95.30
73829;SHT30;62176;48.450;-4.466;2022-09-28T03:19:34;13.80;95.47
73829;SHT30;62176;48.450;-4.466;2022-09-28T03:22:01;13.82;95.61
73829;SHT30;62176;48.450;-4.466;2022-09-28T03:24:26;13.80;95.46
73829;SHT30;62176;48.450;-4.466;2022-09-28T03:26:52;13.85;95.62
73829;SHT30;62176;48.450;-4.466;2022-09-28T03:29:17;13.81;95.43
73829;SHT30;62176;48.450;-4.466;2022-09-28T03:31:44;13.78;95.33
73829;SHT30;62176;48.450;-4.466;2022-09-28T03:34:10;13.75;95.31
73829;SHT30;62176;48.450;-4.466;2022-09-28T03:36:36;13.74;95.31
73829;SHT30;62176;48.450;-4.466;2022-09-28T03:39:01;13.74;95.33
73829;SHT30;62176;48.450;-4.466;2022-09-28T03:41:26;13.74;95.34
73829;SHT30;62176;48.450;-4.466;2022-09-28T03:43:52;13.70;95.29
73829;SHT30;62176;48.450;-4.466;2022-09-28T03:46:18;13.70;95.36
73829;SHT30;62176;48.450;-4.466;2022-09-28T03:48:43;13.67;95.30
73829;SHT30;62176;48.450;-4.466;2022-09-28T03:51:09;13.64;95.21
73829;SHT30;62176;48.450;-4.466;2022-09-28T03:53:35;13.66;95.34
73829;SHT30;62176;48.450;-4.466;2022-09-28T03:56:10;13.61;95.27
73829;SHT30;62176;48.450;-4.466;2022-09-28T03:58:36;13.63;95.32
73829;SHT30;62176;48.450;-4.466;2022-09-28T04:01:06;13.64;95.57
73829;SHT30;62176;48.450;-4.466;2022-09-28T04:03:33;13.66;95.41
73829;SHT30;62176;48.450;-4.466;2022-09-28T04:05:59;13.60;95.26
73829;SHT30;62176;48.450;-4.466;2022-09-28T04:08:25;13.60;95.39
73829;SHT30;62176;48.450;-4.466;2022-09-28T04:10:50;13.66;95.61
73829;SHT30;62176;48.450;-4.466;2022-09-28T04:13:15;13.64;95.64
73829;SHT30;62176;48.450;-4.466;2022-09-28T04:15:42;13.68;95.79
73829;SHT30;62176;48.450;-4.466;2022-09-28T04:18:08;13.73;95.71
73829;SHT30;62176;48.450;-4.466;2022-09-28T04:20:35;13.70;95.57
73829;SHT30;62176;48.450;-4.466;2022-09-28T04:23:00;13.71;95.71
73829;SHT30;62176;48.450;-4.466;2022-09-28T04:25:25;13.74;95.56
73829;SHT30;62176;48.450;-4.466;2022-09-28T04:27:51;13.71;95.47
73829;SHT30;62176;48.450;-4.466;2022-09-28T04:30:35;13.67;95.33
73829;SHT30;62176;48.450;-4.466;2022-09-28T04:33:00;13.68;95.41
73829;SHT30;62176;48.450;-4.466;2022-09-28T04:35:26;13.67;95.39
73829;SHT30;62176;48.450;-4.466;2022-09-28T04:37:51;13.68;95.24
73829;SHT30;62176;48.450;-4.466;2022-09-28T04:40:17;13.67;95.25
73829;SHT30;62176;48.450;-4.466;2022-09-28T04:42:42;13.66;95.30
73829;SHT30;62176;48.450;-4.466;2022-09-28T04:45:08;13.67;95.27
73829;SHT30;62176;48.450;-4.466;2022-09-28T04:47:34;13.63;95.12
73829;SHT30;62176;48.450;-4.466;2022-09-28T04:49:59;13.60;95.09
73829;SHT30;62176;48.450;-4.466;2022-09-28T04:52:24;13.57;95.03
73829;SHT30;62176;48.450;-4.466;2022-09-28T04:54:51;13.57;96.68
73829;SHT30;62176;48.450;-4.466;2022-09-28T04:57:17;13.58;97.05
73829;SHT30;62176;48.450;-4.466;2022-09-28T04:59:43;13.57;97.07
73829;SHT30;62176;48.450;-4.466;2022-09-28T05:02:09;13.56;97.18
73829;SHT30;62176;48.450;-4.466;2022-09-28T05:04:34;13.57;97.24
73829;SHT30;62176;48.450;-4.466;2022-09-28T05:07:00;13.56;97.24
73829;SHT30;62176;48.450;-4.466;2022-09-28T05:09:25;13.58;97.21
73829;SHT30;62176;48.450;-4.466;2022-09-28T05:11:51;13.57;97.13
73829;SHT30;62176;48.450;-4.466;2022-09-28T05:14:19;13.58;97.12
73829;SHT30;62176;48.450;-4.466;2022-09-28T05:16:46;13.53;96.98
73829;SHT30;62176;48.450;-4.466;2022-09-28T05:19:12;13.57;96.89
73829;SHT30;62176;48.450;-4.466;2022-09-28T05:21:38;13.57;96.66
73829;SHT30;62176;48.450;-4.466;2022-09-28T05:24:04;13.58;96.52
73829;SHT30;62176;48.450;-4.466;2022-09-28T05:26:32;13.57;96.10
73829;SHT30;62176;48.450;-4.466;2022-09-28T05:28:58;13.54;95.78
73829;SHT30;62176;48.450;-4.466;2022-09-28T05:31:23;13.54;95.77
73829;SHT30;62176;48.450;-4.466;2022-09-28T05:33:51;13.57;95.85
73829;SHT30;62176;48.450;-4.466;2022-09-28T05:36:17;13.58;95.87
73829;SHT30;62176;48.450;-4.466;2022-09-28T05:38:44;13.58;95.94
73829;SHT30;62176;48.450;-4.466;2022-09-28T05:41:09;13.58;95.88
73829;SHT30;62176;48.450;-4.466;2022-09-28T05:43:34;13.56;95.79
73829;SHT30;62176;48.450;-4.466;2022-09-28T05:46:00;13.51;95.52
73829;SHT30;62176;48.450;-4.466;2022-09-28T05:48:26;13.53;95.80
73829;SHT30;62176;48.450;-4.466;2022-09-28T05:50:52;13.50;95.71
73829;SHT30;62176;48.450;-4.466;2022-09-28T05:53:18;13.48;95.65
73829;SHT30;62176;48.450;-4.466;2022-09-28T05:55:43;13.51;95.80
73829;SHT30;62176;48.450;-4.466;2022-09-28T05:58:09;13.48;95.71
73829;SHT30;62176;48.450;-4.466;2022-09-28T06:00:35;13.50;95.78
73829;SHT30;62176;48.450;-4.466;2022-09-28T06:03:06;13.54;95.84
73829;SHT30;62176;48.450;-4.466;2022-09-28T06:05:35;13.53;95.78
73829;SHT30;62176;48.450;-4.466;2022-09-28T06:08:01;13.50;95.60
73829;SHT30;62176;48.450;-4.466;2022-09-28T06:10:28;13.56;95.76
73829;SHT30;62176;48.450;-4.466;2022-09-28T06:12:54;13.58;95.73
73829;SHT30;62176;48.450;-4.466;2022-09-28T06:15:21;13.47;95.17
73829;SHT30;62176;48.450;-4.466;2022-09-28T06:17:47;13.47;95.17
73829;SHT30;62176;48.450;-4.466;2022-09-28T06:20:13;13.44;95.52
73829;SHT30;62176;48.450;-4.466;2022-09-28T06:22:38;13.48;95.59
73829;SHT30;62176;48.450;-4.466;2022-09-28T06:25:04;13.50;95.77
73829;SHT30;62176;48.450;-4.466;2022-09-28T06:27:31;13.48;95.75
73829;SHT30;62176;48.450;-4.466;2022-09-28T06:29:57;13.47;95.49
73829;SHT30;62176;48.450;-4.466;2022-09-28T06:32:24;13.47;95.53
73829;SHT30;62176;48.450;-4.466;2022-09-28T06:34:53;13.43;95.36
73829;SHT30;62176;48.450;-4.466;2022-09-28T06:37:18;13.39;95.06
73829;SHT30;62176;48.450;-4.466;2022-09-28T06:39:44;13.28;95.33
73829;SHT30;62176;48.450;-4.466;2022-09-28T06:42:09;13.28;95.49
73829;SHT30;62176;48.450;-4.466;2022-09-28T06:44:35;13.24;95.46
73829;SHT30;62176;48.450;-4.466;2022-09-28T06:47:00;13.23;95.57
73829;SHT30;62176;48.450;-4.466;2022-09-28T06:49:26;13.24;95.98
73829;SHT30;62176;48.450;-4.466;2022-09-28T06:51:54;13.27;96.14
73829;SHT30;62176;48.450;-4.466;2022-09-28T06:54:19;13.19;96.09
73829;SHT30;62176;48.450;-4.466;2022-09-28T06:56:50;13.24;96.36
73829;SHT30;62176;48.450;-4.466;2022-09-28T06:59:16;13.26;96.50
73829;SHT30;62176;48.450;-4.466;2022-09-28T07:01:41;13.23;96.52
73829;SHT30;62176;48.450;-4.466;2022-09-28T07:04:06;13.24;96.64
73829;SHT30;62176;48.450;-4.466;2022-09-28T07:06:32;13.30;96.58
73829;SHT30;62176;48.450;-4.466;2022-09-28T07:08:57;13.23;96.41
73829;SHT30;62176;48.450;-4.466;2022-09-28T07:11:26;13.32;96.63
73829;SHT30;62176;48.450;-4.466;2022-09-28T07:13:53;13.16;95.89
73829;SHT30;62176;48.450;-4.466;2022-09-28T07:16:19;13.17;96.49
73829;SHT30;62176;48.450;-4.466;2022-09-28T07:18:44;13.12;96.81
73829;SHT30;62176;48.450;-4.466;2022-09-28T07:21:09;13.12;96.82
73829;SHT30;62176;48.450;-4.466;2022-09-28T07:23:35;13.06;96.60
73829;SHT30;62176;48.450;-4.466;2022-09-28T07:26:04;13.05;96.79
73829;SHT30;62176;48.450;-4.466;2022-09-28T07:28:30;13.02;96.69
73829;SHT30;62176;48.450;-4.466;2022-09-28T07:30:56;13.00;96.65
73829;SHT30;62176;48.450;-4.466;2022-09-28T07:33:22;12.97;96.68
73829;SHT30;62176;48.450;-4.466;2022-09-28T07:35:53;12.95;96.54
73829;SHT30;62176;48.450;-4.466;2022-09-28T07:38:19;12.92;96.62
73829;SHT30;62176;48.450;-4.466;2022-09-28T07:40:45;12.97;96.79
73829;SHT30;62176;48.450;-4.466;2022-09-28T07:43:29;13.02;96.79
73829;SHT30;62176;48.450;-4.466;2022-09-28T07:45:55;12.99;96.57
73829;SHT30;62176;48.450;-4.466;2022-09-28T07:48:21;12.97;96.47
73829;SHT30;62176;48.450;-4.466;2022-09-28T07:50:51;12.95;96.41
73829;SHT30;62176;48.450;-4.466;2022-09-28T07:53:22;12.92;96.31
73829;SHT30;62176;48.450;-4.466;2022-09-28T07:55:57;12.88;95.92
73829;SHT30;62176;48.450;-4.466;2022-09-28T07:58:26;12.88;96.09
73829;SHT30;62176;48.450;-4.466;2022-09-28T08:00:52;12.89;96.31
73829;SHT30;62176;48.450;-4.466;2022-09-28T08:03:18;12.92;96.38
73829;SHT30;62176;48.450;-4.466;2022-09-28T08:05:46;12.89;96.12
73829;SHT30;62176;48.450;-4.466;2022-09-28T08:08:11;12.93;96.27
73829;SHT30;62176;48.450;-4.466;2022-09-28T08:10:37;12.97;96.42
73829;SHT30;62176;48.450;-4.466;2022-09-28T08:13:04;13.10;96.54
73829;SHT30;62176;48.450;-4.466;2022-09-28T08:15:33;13.16;96.65
73829;SHT30;62176;48.450;-4.466;2022-09-28T08:18:05;13.22;96.47
73829;SHT30;62176;48.450;-4.466;2022-09-28T08:20:32;13.28;96.13
73829;SHT30;62176;48.450;-4.466;2022-09-28T08:23:16;13.27;96.18
73829;SHT30;62176;48.450;-4.466;2022-09-28T08:25:49;13.33;96.05
73829;SHT30;62176;48.450;-4.466;2022-09-28T08:28:16;13.34;95.97
73829;SHT30;62176;48.450;-4.466;2022-09-28T08:30:42;13.32;95.93
73829;SHT30;62176;48.450;-4.466;2022-09-28T08:33:10;13.37;96.14
73829;SHT30;62176;48.450;-4.466;2022-09-28T08:35:35;13.44;96.26
73829;SHT30;62176;48.450;-4.466;2022-09-28T08:38:01;13.44;95.84
73829;SHT30;62176;48.450;-4.466;2022-09-28T08:40:28;13.53;95.95
73829;SHT30;62176;48.450;-4.466;2022-09-28T08:43:00;13.63;96.16
73829;SHT30;62176;48.450;-4.466;2022-09-28T08:45:28;13.66;95.56
73829;SHT30;62176;48.450;-4.466;2022-09-28T08:48:02;13.68;95.37
73829;SHT30;62176;48.450;-4.466;2022-09-28T08:50:53;13.70;95.72
73829;SHT30;62176;48.450;-4.466;2022-09-28T08:53:52;13.71;95.61
73829;SHT30;62176;48.450;-4.466;2022-09-28T08:56:30;13.75;95.43
73829;SHT30;62176;48.450;-4.466;2022-09-28T08:59:06;13.78;95.19
73829;SHT30;62176;48.450;-4.466;2022-09-28T09:01:39;13.81;95.41
73829;SHT30;62176;48.450;-4.466;2022-09-28T09:04:06;13.82;95.26
73829;SHT30;62176;48.450;-4.466;2022-09-28T09:06:40;13.88;95.32
73829;SHT30;62176;48.450;-4.466;2022-09-28T09:09:38;13.94;94.85
73829;SHT30;62176;48.450;-4.466;2022-09-28T09:12:19;14.05;95.22
73829;SHT30;62176;48.450;-4.466;2022-09-28T09:26:08;14.15;93.89
73829;SHT30;62176;48.450;-4.466;2022-09-28T09:37:34;14.28;94.29
73829;SHT30;62176;48.450;-4.466;2022-09-28T09:40:42;14.51;95.02
73829;SHT30;62176;48.450;-4.466;2022-09-28T09:48:53;14.46;92.70
73829;SHT30;62176;48.450;-4.466;2022-09-28T09:51:25;14.42;91.97
73829;SHT30;62176;48.450;-4.466;2022-09-28T09:54:05;14.38;91.80
73829;SHT30;62176;48.450;-4.466;2022-09-28T09:56:39;14.29;91.27
73829;SHT30;62176;48.450;-4.466;2022-09-28T09:59:16;14.32;92.37
73829;SHT30;62176;48.450;-4.466;2022-09-28T10:01:43;14.35;92.25
73829;SHT30;62176;48.450;-4.466;2022-09-28T10:04:36;14.41;91.29
73829;SHT30;62176;48.450;-4.466;2022-09-28T10:07:07;14.33;89.70
73829;SHT30;62176;48.450;-4.466;2022-09-28T10:09:40;14.43;91.86
73829;SHT30;62176;48.450;-4.466;2022-09-28T10:12:17;14.48;88.40
73829;SHT30;62176;48.450;-4.466;2022-09-28T10:14:43;14.42;89.70
73829;SHT30;62176;48.450;-4.466;2022-09-28T10:17:14;14.32;89.93
73829;SHT30;62176;48.450;-4.466;2022-09-28T10:19:41;14.22;89.70
73829;SHT30;62176;48.450;-4.466;2022-09-28T10:22:14;14.19;92.68
73829;SHT30;62176;48.450;-4.466;2022-09-28T10:24:43;14.15;92.15
73829;SHT30;62176;48.450;-4.466;2022-09-28T10:27:18;14.22;92.43
73829;SHT30;62176;48.450;-4.466;2022-09-28T10:32:35;14.36;92.39
73829;SHT30;62176;48.450;-4.466;2022-09-28T10:35:22;14.52;93.37
73829;SHT30;62176;48.450;-4.466;2022-09-28T10:37:48;14.56;93.03
73829;SHT30;62176;48.450;-4.466;2022-09-28T10:43:14;14.41;92.12
73829;SHT30;62176;48.450;-4.466;2022-09-28T10:45:41;14.33;91.43
73829;SHT30;62176;48.450;-4.466;2022-09-28T10:48:17;14.21;92.09
73829;SHT30;62176;48.450;-4.466;2022-09-28T10:50:57;14.19;91.53
73829;SHT30;62176;48.450;-4.466;2022-09-28T10:53:23;14.14;91.52
73829;SHT30;62176;48.450;-4.466;2022-09-28T10:56:06;14.17;92.52
73829;SHT30;62176;48.450;-4.466;2022-09-28T10:58:39;14.22;92.68
73829;SHT30;62176;48.450;-4.466;2022-09-28T11:01:19;14.18;92.44
73829;SHT30;62176;48.450;-4.466;2022-09-28T11:06:27;14.32;92.10
73829;SHT30;62176;48.450;-4.466;2022-09-28T11:08:57;14.24;90.58
73829;SHT30;62176;48.450;-4.466;2022-09-28T11:11:24;14.28;91.79
73829;SHT30;62176;48.450;-4.466;2022-09-28T11:13:56;14.28;88.43
73829;SHT30;62176;48.450;-4.466;2022-09-28T11:16:33;14.31;88.68
73829;SHT30;62176;48.450;-4.466;2022-09-28T11:19:27;14.35;89.36
73829;SHT30;62176;48.450;-4.466;2022-09-28T11:21:53;14.31;87.87
73829;SHT30;62176;48.450;-4.466;2022-09-28T11:24:21;14.28;88.89
73829;SHT30;62176;48.450;-4.466;2022-09-28T11:26:54;14.29;88.10
73829;SHT30;62176;48.450;-4.466;2022-09-28T11:29:43;14.33;88.50
73829;SHT30;62176;48.450;-4.466;2022-09-28T11:32:11;14.43;87.59
73829;SHT30;62176;48.450;-4.466;2022-09-28T11:34:42;14.49;85.22
73829;SHT30;62176;48.450;-4.466;2022-09-28T11:46:24;15.02;82.82
73829;SHT30;62176;48.450;-4.466;2022-09-28T11:48:59;15.00;83.25
73829;SHT30;62176;48.450;-4.466;2022-09-28T11:51:30;15.13;80.25
73829;SHT30;62176;48.450;-4.466;2022-09-28T11:54:04;15.33;82.21
73829;SHT30;62176;48.450;-4.466;2022-09-28T11:56:41;15.46;80.24
73829;SHT30;62176;48.450;-4.466;2022-09-28T11:59:19;15.47;80.07
73829;SHT30;62176;48.450;-4.466;2022-09-28T12:12:34;15.11;77.92
73829;SHT30;62176;48.450;-4.466;2022-09-28T12:15:13;15.22;79.93
73829;SHT30;62176;48.450;-4.466;2022-09-28T12:18:07;15.30;74.47
73829;SHT30;62176;48.450;-4.466;2022-09-28T12:20:41;15.40;75.34
73829;SHT30;62176;48.450;-4.466;2022-09-28T12:23:17;15.50;76.44
73829;SHT30;62176;48.450;-4.466;2022-09-28T12:28:51;15.59;74.56
73829;SHT30;62176;48.450;-4.466;2022-09-28T12:34:11;15.67;75.27
73829;SHT30;62176;48.450;-4.466;2022-09-28T12:36:52;15.79;72.68
73829;SHT30;62176;48.450;-4.466;2022-09-28T12:51:02;15.69;75.33
73829;SHT30;62176;48.450;-4.466;2022-09-28T12:56:18;15.84;72.55
73829;SHT30;62176;48.450;-4.466;2022-09-28T13:02:20;15.89;70.74
73829;SHT30;62176;48.450;-4.466;2022-09-28T13:10:30;15.64;74.32
73829;SHT30;62176;48.450;-4.466;2022-09-28T13:16:13;15.65;71.98
73829;SHT30;62176;48.450;-4.466;2022-09-28T13:21:51;15.50;73.24
73829;SHT30;62176;48.450;-4.466;2022-09-28T13:24:25;15.47;74.09
73829;SHT30;62176;48.450;-4.466;2022-09-28T13:26:54;15.61;73.98
73829;SHT30;62176;48.450;-4.466;2022-09-28T13:29:21;15.68;72.26
73829;SHT30;62176;48.450;-4.466;2022-09-28T13:31:53;15.71;72.33
73829;SHT30;62176;48.450;-4.466;2022-09-28T13:34:25;15.72;73.45
73829;SHT30;62176;48.450;-4.466;2022-09-28T13:42:11;15.89;72.89
73829;SHT30;62176;48.450;-4.466;2022-09-28T13:53:31;16.33;68.42
73829;SHT30;62176;48.450;-4.466;2022-09-28T14:00:58;16.42;66.02
73829;SHT30;62176;48.450;-4.466;2022-09-28T14:03:58;16.41;69.96
73829;SHT30;62176;48.450;-4.466;2022-09-28T14:06:35;16.39;68.42
73829;SHT30;62176;48.450;-4.466;2022-09-28T14:09:28;16.33;69.88
73829;SHT30;62176;48.450;-4.466;2022-09-28T14:14:51;16.32;67.76
73829;SHT30;62176;48.450;-4.466;2022-09-28T14:19:52;16.30;66.64
73829;SHT30;62176;48.450;-4.466;2022-09-28T14:25:26;16.15;70.52
73829;SHT30;62176;48.450;-4.466;2022-09-28T14:33:25;16.19;71.41
73829;SHT30;62176;48.450;-4.466;2022-09-28T14:35:58;16.28;65.88
73829;SHT30;62176;48.450;-4.466;2022-09-28T14:38:33;16.32;69.04
73829;SHT30;62176;48.450;-4.466;2022-09-28T14:41:25;16.32;69.94
73829;SHT30;62176;48.450;-4.466;2022-09-28T14:44:06;16.38;66.24
73829;SHT30;62176;48.450;-4.466;2022-09-28T14:46:44;16.45;67.48
73829;SHT30;62176;48.450;-4.466;2022-09-28T14:54:22;16.51;66.19
73829;SHT30;62176;48.450;-4.466;2022-09-28T14:59:31;16.51;70.52
73829;SHT30;62176;48.450;-4.466;2022-09-28T15:02:14;16.43;71.52
73829;SHT30;62176;48.450;-4.466;2022-09-28T15:04:46;16.22;70.18
73829;SHT30;62176;48.450;-4.466;2022-09-28T15:07:29;16.02;72.38
73829;SHT30;62176;48.450;-4.466;2022-09-28T15:13:25;15.67;71.15
73829;SHT30;62176;48.450;-4.466;2022-09-28T15:16:07;15.65;71.84
73829;SHT30;62176;48.450;-4.466;2022-09-28T15:18:58;15.64;70.83
73829;SHT30;62176;48.450;-4.466;2022-09-28T15:21:31;15.64;69.93
73829;SHT30;62176;48.450;-4.466;2022-09-28T15:23:57;15.50;72.54
73829;SHT30;62176;48.450;-4.466;2022-09-28T15:26:31;15.41;70.85
73829;SHT30;62176;48.450;-4.466;2022-09-28T15:28:59;15.41;71.22
73829;SHT30;62176;48.450;-4.466;2022-09-28T15:31:33;15.54;72.03
73829;SHT30;62176;48.450;-4.466;2022-09-28T15:33:58;15.65;71.95
73829;SHT30;62176;48.450;-4.466;2022-09-28T15:36:44;15.77;70.79
73829;SHT30;62176;48.450;-4.466;2022-09-28T15:39:11;15.68;70.91
73829;SHT30;62176;48.450;-4.466;2022-09-28T15:41:39;15.61;68.59
73829;SHT30;62176;48.450;-4.466;2022-09-28T15:44:15;15.57;69.84
73829;SHT30;62176;48.450;-4.466;2022-09-28T15:46:45;15.59;71.42
73829;SHT30;62176;48.450;-4.466;2022-09-28T15:52:15;15.69;72.13
73829;SHT30;62176;48.450;-4.466;2022-09-28T15:54:45;15.74;71.00
73829;SHT30;62176;48.450;-4.466;2022-09-28T15:57:35;15.77;71.38
73829;SHT30;62176;48.450;-4.466;2022-09-28T16:00:03;15.72;68.03
73829;SHT30;62176;48.450;-4.466;2022-09-28T16:02:30;15.69;68.43
73829;SHT30;62176;48.450;-4.466;2022-09-28T16:04:57;15.64;68.02
73829;SHT30;62176;48.450;-4.466;2022-09-28T16:07:35;15.58;67.77
73829;SHT30;62176;48.450;-4.466;2022-09-28T16:12:40;15.46;68.13
73829;SHT30;62176;48.450;-4.466;2022-09-28T16:17:35;15.64;70.30
73829;SHT30;62176;48.450;-4.466;2022-09-28T16:23:14;16.19;68.34
73829;SHT30;62176;48.450;-4.466;2022-09-28T16:26:00;16.55;66.85
73829;SHT30;62176;48.450;-4.466;2022-09-28T16:33:29;17.23;67.46
73829;SHT30;62176;48.450;-4.466;2022-09-28T16:36:01;18.16;65.40
73829;SHT30;62176;48.450;-4.466;2022-09-28T16:38:27;17.75;66.15
73829;SHT30;62176;48.450;-4.466;2022-09-28T16:40:52;17.26;66.97
73829;SHT30;62176;48.450;-4.466;2022-09-28T16:43:36;16.63;67.66
73829;SHT30;62176;48.450;-4.466;2022-09-28T16:46:09;16.18;68.16
73829;SHT30;62176;48.450;-4.466;2022-09-28T16:48:42;16.18;67.59
73829;SHT30;62176;48.450;-4.466;2022-09-28T16:51:16;16.52;66.56
73829;SHT30;62176;48.450;-4.466;2022-09-28T16:53:42;16.33;66.50
73829;SHT30;62176;48.450;-4.466;2022-09-28T16:56:26;16.18;71.27
73829;SHT30;62176;48.450;-4.466;2022-09-28T16:58:53;16.05;68.46
73829;SHT30;62176;48.450;-4.466;2022-09-28T17:01:19;15.99;68.02
73829;SHT30;62176;48.450;-4.466;2022-09-28T17:03:45;16.12;69.07
73829;SHT30;62176;48.450;-4.466;2022-09-28T17:06:12;16.22;69.74
73829;SHT30;62176;48.450;-4.466;2022-09-28T17:08:38;16.06;70.74
73829;SHT30;62176;48.450;-4.466;2022-09-28T17:11:03;15.85;71.86
73829;SHT30;62176;48.450;-4.466;2022-09-28T17:13:31;15.61;71.18
73829;SHT30;62176;48.450;-4.466;2022-09-28T17:16:06;15.44;72.24
73829;SHT30;62176;48.450;-4.466;2022-09-28T17:18:35;15.31;71.98
73829;SHT30;62176;48.450;-4.466;2022-09-28T17:21:05;15.14;72.41
73829;SHT30;62176;48.450;-4.466;2022-09-28T17:23:30;14.93;72.41
73829;SHT30;62176;48.450;-4.466;2022-09-28T17:25:57;14.83;73.76
73829;SHT30;62176;48.450;-4.466;2022-09-28T17:28:25;14.73;74.95
73829;SHT30;62176;48.450;-4.466;2022-09-28T17:30:51;14.65;75.37
73829;SHT30;62176;48.450;-4.466;2022-09-28T17:33:17;14.59;74.42
73829;SHT30;62176;48.450;-4.466;2022-09-28T17:35:43;14.49;74.37
73829;SHT30;62176;48.450;-4.466;2022-09-28T17:38:13;14.45;76.21
73829;SHT30;62176;48.450;-4.466;2022-09-28T17:40:40;14.42;75.08
73829;SHT30;62176;48.450;-4.466;2022-09-28T17:43:06;14.33;75.41
73829;SHT30;62176;48.450;-4.466;2022-09-28T17:45:33;14.28;75.63
73829;SHT30;62176;48.450;-4.466;2022-09-28T17:48:03;14.24;75.70
73829;SHT30;62176;48.450;-4.466;2022-09-28T17:50:31;14.22;76.12
73829;SHT30;62176;48.450;-4.466;2022-09-28T17:52:58;14.19;76.57
73829;SHT30;62176;48.450;-4.466;2022-09-28T17:55:28;14.14;75.00
73829;SHT30;62176;48.450;-4.466;2022-09-28T17:57:56;14.11;76.78
73829;SHT30;62176;48.450;-4.466;2022-09-28T18:00:22;14.08;77.22
73829;SHT30;62176;48.450;-4.466;2022-09-28T18:02:52;14.04;76.27
73829;SHT30;62176;48.450;-4.466;2022-09-28T18:05:17;14.04;77.35
73829;SHT30;62176;48.450;-4.466;2022-09-28T18:07:44;14.04;77.01
73829;SHT30;62176;48.450;-4.466;2022-09-28T18:10:16;13.98;77.54
73829;SHT30;62176;48.450;-4.466;2022-09-28T18:12:42;13.95;76.62
73829;SHT30;62176;48.450;-4.466;2022-09-28T18:15:08;13.92;77.36
73829;SHT30;62176;48.450;-4.466;2022-09-28T18:17:34;13.90;77.18
73829;SHT30;62176;48.450;-4.466;2022-09-28T18:20:00;13.84;77.00
73829;SHT30;62176;48.450;-4.466;2022-09-28T18:22:25;13.84;77.12
73829;SHT30;62176;48.450;-4.466;2022-09-28T18:24:51;13.81;78.11
73829;SHT30;62176;48.450;-4.466;2022-09-28T18:27:16;13.75;78.61
73829;SHT30;62176;48.450;-4.466;2022-09-28T18:29:41;13.73;77.86
73829;SHT30;62176;48.450;-4.466;2022-09-28T18:32:07;13.66;78.61
73829;SHT30;62176;48.450;-4.466;2022-09-28T18:34:36;13.60;78.60
73829;SHT30;62176;48.450;-4.466;2022-09-28T18:37:03;13.58;79.31
73829;SHT30;62176;48.450;-4.466;2022-09-28T18:39:28;13.51;79.32
73829;SHT30;62176;48.450;-4.466;2022-09-28T18:41:54;13.48;79.33
73829;SHT30;62176;48.450;-4.466;2022-09-28T18:44:20;13.46;79.63
73829;SHT30;62176;48.450;-4.466;2022-09-28T18:46:45;13.40;79.40